<gpx version="1.1" creator="CompeGPS">
  <trk>
    <name>Col de la Noire</name>
    <trkseg>
      <trkpt lat="44.675292" lon="6.921682">
        <ele>2350.0</ele>
        <time>2013-09-24T09:38:20Z</time>
      </trkpt>
      
      <trkpt lat="44.675375" lon="6.921552">
        <ele>2348.9</ele>
        <time>2013-09-24T09:38:37Z</time>
      </trkpt>
      
      <trkpt lat="44.675470" lon="6.921868">
        <ele>2355.0</ele>
        <time>2013-09-24T09:39:28Z</time>
      </trkpt>
      
      <trkpt lat="44.675410" lon="6.922075">
        <ele>2356.0</ele>
        <time>2013-09-24T09:39:38Z</time>
      </trkpt>
      
      <trkpt lat="44.675293" lon="6.922237">
        <ele>2355.1</ele>
        <time>2013-09-24T09:39:48Z</time>
      </trkpt>
      
      <trkpt lat="44.675137" lon="6.922248">
        <ele>2352.0</ele>
        <time>2013-09-24T09:40:05Z</time>
      </trkpt>
      
      <trkpt lat="44.674965" lon="6.922225">
        <ele>2348.7</ele>
        <time>2013-09-24T09:40:17Z</time>
      </trkpt>
      
      <trkpt lat="44.674818" lon="6.922135">
        <ele>2346.7</ele>
        <time>2013-09-24T09:40:29Z</time>
      </trkpt>
      
      <trkpt lat="44.674780" lon="6.922017">
        <ele>2345.4</ele>
        <time>2013-09-24T09:40:50Z</time>
      </trkpt>
      
      <trkpt lat="44.674673" lon="6.921738">
        <ele>2341.7</ele>
        <time>2013-09-24T09:41:06Z</time>
      </trkpt>
      
      <trkpt lat="44.674532" lon="6.921632">
        <ele>2338.6</ele>
        <time>2013-09-24T09:41:19Z</time>
      </trkpt>
      
      <trkpt lat="44.674378" lon="6.921527">
        <ele>2334.8</ele>
        <time>2013-09-24T09:41:33Z</time>
      </trkpt>
      
      <trkpt lat="44.674218" lon="6.921475">
        <ele>2331.9</ele>
        <time>2013-09-24T09:41:46Z</time>
      </trkpt>
      
      <trkpt lat="44.674122" lon="6.921450">
        <ele>2331.4</ele>
        <time>2013-09-24T09:41:54Z</time>
      </trkpt>
      
      <trkpt lat="44.673895" lon="6.921425">
        <ele>2333.9</ele>
        <time>2013-09-24T09:42:12Z</time>
      </trkpt>
      
      <trkpt lat="44.673718" lon="6.921448">
        <ele>2336.9</ele>
        <time>2013-09-24T09:42:26Z</time>
      </trkpt>
      
      <trkpt lat="44.673552" lon="6.921475">
        <ele>2339.8</ele>
        <time>2013-09-24T09:42:39Z</time>
      </trkpt>
      
      <trkpt lat="44.673452" lon="6.921483">
        <ele>2341.4</ele>
        <time>2013-09-24T09:42:55Z</time>
      </trkpt>
      
      <trkpt lat="44.673210" lon="6.921558">
        <ele>2346.1</ele>
        <time>2013-09-24T09:43:18Z</time>
      </trkpt>
      
      <trkpt lat="44.673078" lon="6.921697">
        <ele>2351.2</ele>
        <time>2013-09-24T09:43:36Z</time>
      </trkpt>
      
      <trkpt lat="44.672965" lon="6.921863">
        <ele>2356.6</ele>
        <time>2013-09-24T09:43:50Z</time>
      </trkpt>
      
      <trkpt lat="44.672888" lon="6.921943">
        <ele>2359.7</ele>
        <time>2013-09-24T09:43:58Z</time>
      </trkpt>
      
      <trkpt lat="44.672750" lon="6.922190">
        <ele>2368.3</ele>
        <time>2013-09-24T09:44:47Z</time>
      </trkpt>
      
      <trkpt lat="44.672613" lon="6.922347">
        <ele>2375.2</ele>
        <time>2013-09-24T09:45:01Z</time>
      </trkpt>
      
      <trkpt lat="44.672477" lon="6.922475">
        <ele>2381.1</ele>
        <time>2013-09-24T09:45:15Z</time>
      </trkpt>
      
      <trkpt lat="44.672628" lon="6.922537">
        <ele>2378.9</ele>
        <time>2013-09-24T09:45:48Z</time>
      </trkpt>
      
      <trkpt lat="44.672795" lon="6.922507">
        <ele>2374.9</ele>
        <time>2013-09-24T09:46:00Z</time>
      </trkpt>
      
      <trkpt lat="44.672883" lon="6.922472">
        <ele>2371.9</ele>
        <time>2013-09-24T09:46:07Z</time>
      </trkpt>
      
      <trkpt lat="44.673107" lon="6.922370">
        <ele>2364.7</ele>
        <time>2013-09-24T09:46:38Z</time>
      </trkpt>
      
      <trkpt lat="44.673253" lon="6.922263">
        <ele>2359.2</ele>
        <time>2013-09-24T09:46:51Z</time>
      </trkpt>
      
      <trkpt lat="44.673260" lon="6.922250">
        <ele>2358.8</ele>
        <time>2013-09-24T09:47:17Z</time>
      </trkpt>
      
      <trkpt lat="44.673118" lon="6.922370">
        <ele>2364.5</ele>
        <time>2013-09-24T09:47:29Z</time>
      </trkpt>
      
      <trkpt lat="44.672955" lon="6.922460">
        <ele>2370.2</ele>
        <time>2013-09-24T09:47:42Z</time>
      </trkpt>
      
      <trkpt lat="44.672805" lon="6.922510">
        <ele>2374.7</ele>
        <time>2013-09-24T09:47:52Z</time>
      </trkpt>
      
      <trkpt lat="44.672635" lon="6.922557">
        <ele>2378.7</ele>
        <time>2013-09-24T09:48:02Z</time>
      </trkpt>
      
      <trkpt lat="44.672477" lon="6.922582">
        <ele>2381.8</ele>
        <time>2013-09-24T09:48:12Z</time>
      </trkpt>
      
      <trkpt lat="44.672310" lon="6.922620">
        <ele>2380.9</ele>
        <time>2013-09-24T09:48:25Z</time>
      </trkpt>
      
      <trkpt lat="44.672168" lon="6.922753">
        <ele>2380.4</ele>
        <time>2013-09-24T09:48:44Z</time>
      </trkpt>
      
      <trkpt lat="44.672078" lon="6.922955">
        <ele>2380.6</ele>
        <time>2013-09-24T09:49:01Z</time>
      </trkpt>
      
      <trkpt lat="44.671965" lon="6.923130">
        <ele>2380.9</ele>
        <time>2013-09-24T09:49:18Z</time>
      </trkpt>
      
      <trkpt lat="44.671908" lon="6.923237">
        <ele>2381.3</ele>
        <time>2013-09-24T09:49:28Z</time>
      </trkpt>
      
      <trkpt lat="44.671690" lon="6.923383">
        <ele>2381.9</ele>
        <time>2013-09-24T09:50:17Z</time>
      </trkpt>
      
      <trkpt lat="44.671582" lon="6.923580">
        <ele>2382.9</ele>
        <time>2013-09-24T09:50:31Z</time>
      </trkpt>
      
      <trkpt lat="44.671452" lon="6.923725">
        <ele>2384.6</ele>
        <time>2013-09-24T09:50:45Z</time>
      </trkpt>
      
      <trkpt lat="44.671310" lon="6.923853">
        <ele>2386.6</ele>
        <time>2013-09-24T09:50:59Z</time>
      </trkpt>
      
      <trkpt lat="44.671142" lon="6.923883">
        <ele>2389.1</ele>
        <time>2013-09-24T09:51:13Z</time>
      </trkpt>
      
      <trkpt lat="44.670982" lon="6.923872">
        <ele>2391.4</ele>
        <time>2013-09-24T09:51:25Z</time>
      </trkpt>
      
      <trkpt lat="44.670882" lon="6.923885">
        <ele>2392.9</ele>
        <time>2013-09-24T09:51:33Z</time>
      </trkpt>
      
      <trkpt lat="44.670655" lon="6.923995">
        <ele>2396.9</ele>
        <time>2013-09-24T09:51:52Z</time>
      </trkpt>
      
      <trkpt lat="44.670528" lon="6.924143">
        <ele>2399.1</ele>
        <time>2013-09-24T09:52:06Z</time>
      </trkpt>
      
      <trkpt lat="44.670422" lon="6.924302">
        <ele>2399.6</ele>
        <time>2013-09-24T09:52:18Z</time>
      </trkpt>
      
      <trkpt lat="44.670285" lon="6.924453">
        <ele>2400.2</ele>
        <time>2013-09-24T09:52:32Z</time>
      </trkpt>
      
      <trkpt lat="44.670207" lon="6.924533">
        <ele>2400.7</ele>
        <time>2013-09-24T09:52:40Z</time>
      </trkpt>
      
      <trkpt lat="44.670007" lon="6.924727">
        <ele>2401.8</ele>
        <time>2013-09-24T09:52:59Z</time>
      </trkpt>
      
      <trkpt lat="44.669890" lon="6.924882">
        <ele>2402.1</ele>
        <time>2013-09-24T09:53:12Z</time>
      </trkpt>
      
      <trkpt lat="44.669752" lon="6.925002">
        <ele>2403.2</ele>
        <time>2013-09-24T09:53:26Z</time>
      </trkpt>
      
      <trkpt lat="44.669607" lon="6.925117">
        <ele>2405.6</ele>
        <time>2013-09-24T09:53:40Z</time>
      </trkpt>
      
      <trkpt lat="44.669465" lon="6.925243">
        <ele>2407.8</ele>
        <time>2013-09-24T09:53:53Z</time>
      </trkpt>
      
      <trkpt lat="44.669333" lon="6.925392">
        <ele>2409.8</ele>
        <time>2013-09-24T09:54:07Z</time>
      </trkpt>
      
      <trkpt lat="44.669250" lon="6.925595">
        <ele>2410.9</ele>
        <time>2013-09-24T09:54:22Z</time>
      </trkpt>
      
      <trkpt lat="44.669243" lon="6.925832">
        <ele>2410.8</ele>
        <time>2013-09-24T09:54:37Z</time>
      </trkpt>
      
      <trkpt lat="44.669248" lon="6.925975">
        <ele>2412.1</ele>
        <time>2013-09-24T09:54:45Z</time>
      </trkpt>
      
      <trkpt lat="44.669313" lon="6.926288">
        <ele>2414.2</ele>
        <time>2013-09-24T09:55:03Z</time>
      </trkpt>
      
      <trkpt lat="44.669365" lon="6.926520">
        <ele>2415.6</ele>
        <time>2013-09-24T09:55:19Z</time>
      </trkpt>
      
      <trkpt lat="44.669362" lon="6.926753">
        <ele>2417.5</ele>
        <time>2013-09-24T09:55:50Z</time>
      </trkpt>
      
      <trkpt lat="44.669285" lon="6.926978">
        <ele>2419.3</ele>
        <time>2013-09-24T09:56:17Z</time>
      </trkpt>
      
      <trkpt lat="44.669190" lon="6.927180">
        <ele>2421.0</ele>
        <time>2013-09-24T09:56:30Z</time>
      </trkpt>
      
      <trkpt lat="44.669087" lon="6.927375">
        <ele>2422.7</ele>
        <time>2013-09-24T09:56:42Z</time>
      </trkpt>
      
      <trkpt lat="44.668992" lon="6.927558">
        <ele>2423.9</ele>
        <time>2013-09-24T09:56:54Z</time>
      </trkpt>
      
      <trkpt lat="44.668915" lon="6.927762">
        <ele>2424.3</ele>
        <time>2013-09-24T09:57:07Z</time>
      </trkpt>
      
      <trkpt lat="44.668820" lon="6.927965">
        <ele>2425.0</ele>
        <time>2013-09-24T09:57:19Z</time>
      </trkpt>
      
      <trkpt lat="44.668732" lon="6.928170">
        <ele>2425.6</ele>
        <time>2013-09-24T09:57:32Z</time>
      </trkpt>
      
      <trkpt lat="44.668663" lon="6.928382">
        <ele>2426.2</ele>
        <time>2013-09-24T09:57:45Z</time>
      </trkpt>
      
      <trkpt lat="44.668552" lon="6.928555">
        <ele>2427.7</ele>
        <time>2013-09-24T09:57:57Z</time>
      </trkpt>
      
      <trkpt lat="44.668477" lon="6.928763">
        <ele>2428.8</ele>
        <time>2013-09-24T09:58:10Z</time>
      </trkpt>
      
      <trkpt lat="44.668392" lon="6.928965">
        <ele>2430.1</ele>
        <time>2013-09-24T09:58:23Z</time>
      </trkpt>
      
      <trkpt lat="44.668302" lon="6.929160">
        <ele>2431.4</ele>
        <time>2013-09-24T09:58:35Z</time>
      </trkpt>
      
      <trkpt lat="44.668212" lon="6.929365">
        <ele>2430.4</ele>
        <time>2013-09-24T09:59:07Z</time>
      </trkpt>
      
      <trkpt lat="44.668103" lon="6.929535">
        <ele>2430.2</ele>
        <time>2013-09-24T09:59:18Z</time>
      </trkpt>
      
      <trkpt lat="44.667997" lon="6.929695">
        <ele>2430.2</ele>
        <time>2013-09-24T09:59:30Z</time>
      </trkpt>
      
      <trkpt lat="44.667890" lon="6.929878">
        <ele>2430.1</ele>
        <time>2013-09-24T09:59:42Z</time>
      </trkpt>
      
      <trkpt lat="44.667788" lon="6.930067">
        <ele>2429.9</ele>
        <time>2013-09-24T09:59:54Z</time>
      </trkpt>
      
      <trkpt lat="44.667677" lon="6.930242">
        <ele>2430.4</ele>
        <time>2013-09-24T10:00:06Z</time>
      </trkpt>
      
      <trkpt lat="44.667607" lon="6.930343">
        <ele>2431.0</ele>
        <time>2013-09-24T10:00:13Z</time>
      </trkpt>
      
      <trkpt lat="44.667443" lon="6.930572">
        <ele>2432.2</ele>
        <time>2013-09-24T10:00:29Z</time>
      </trkpt>
      
      <trkpt lat="44.667330" lon="6.930748">
        <ele>2432.4</ele>
        <time>2013-09-24T10:00:41Z</time>
      </trkpt>
      
      <trkpt lat="44.667210" lon="6.930910">
        <ele>2432.7</ele>
        <time>2013-09-24T10:00:53Z</time>
      </trkpt>
      
      <trkpt lat="44.667083" lon="6.931072">
        <ele>2433.2</ele>
        <time>2013-09-24T10:01:05Z</time>
      </trkpt>
      
      <trkpt lat="44.666975" lon="6.931238">
        <ele>2433.4</ele>
        <time>2013-09-24T10:01:17Z</time>
      </trkpt>
      
      <trkpt lat="44.666857" lon="6.931420">
        <ele>2433.6</ele>
        <time>2013-09-24T10:01:29Z</time>
      </trkpt>
      
      <trkpt lat="44.666765" lon="6.931620">
        <ele>2433.4</ele>
        <time>2013-09-24T10:01:43Z</time>
      </trkpt>
      
      <trkpt lat="44.666702" lon="6.931842">
        <ele>2432.6</ele>
        <time>2013-09-24T10:01:58Z</time>
      </trkpt>
      
      <trkpt lat="44.666657" lon="6.932072">
        <ele>2431.7</ele>
        <time>2013-09-24T10:02:11Z</time>
      </trkpt>
      
      <trkpt lat="44.666620" lon="6.932202">
        <ele>2431.5</ele>
        <time>2013-09-24T10:02:19Z</time>
      </trkpt>
      
      <trkpt lat="44.666513" lon="6.932505">
        <ele>2431.8</ele>
        <time>2013-09-24T10:02:38Z</time>
      </trkpt>
      
      <trkpt lat="44.666445" lon="6.932723">
        <ele>2432.5</ele>
        <time>2013-09-24T10:02:53Z</time>
      </trkpt>
      
      <trkpt lat="44.666388" lon="6.932933">
        <ele>2433.1</ele>
        <time>2013-09-24T10:03:05Z</time>
      </trkpt>
      
      <trkpt lat="44.666335" lon="6.933150">
        <ele>2433.7</ele>
        <time>2013-09-24T10:03:18Z</time>
      </trkpt>
      
      <trkpt lat="44.666287" lon="6.933258">
        <ele>2434.4</ele>
        <time>2013-09-24T10:03:36Z</time>
      </trkpt>
      
      <trkpt lat="44.666207" lon="6.933565">
        <ele>2435.9</ele>
        <time>2013-09-24T10:03:59Z</time>
      </trkpt>
      
      <trkpt lat="44.666138" lon="6.933778">
        <ele>2437.3</ele>
        <time>2013-09-24T10:04:12Z</time>
      </trkpt>
      
      <trkpt lat="44.666082" lon="6.933982">
        <ele>2438.4</ele>
        <time>2013-09-24T10:04:24Z</time>
      </trkpt>
      
      <trkpt lat="44.666018" lon="6.934200">
        <ele>2439.8</ele>
        <time>2013-09-24T10:04:37Z</time>
      </trkpt>
      
      <trkpt lat="44.665970" lon="6.934423">
        <ele>2442.1</ele>
        <time>2013-09-24T10:04:50Z</time>
      </trkpt>
      
      <trkpt lat="44.665932" lon="6.934665">
        <ele>2444.1</ele>
        <time>2013-09-24T10:05:04Z</time>
      </trkpt>
      
      <trkpt lat="44.665875" lon="6.934890">
        <ele>2446.0</ele>
        <time>2013-09-24T10:05:17Z</time>
      </trkpt>
      
      <trkpt lat="44.665847" lon="6.935120">
        <ele>2448.6</ele>
        <time>2013-09-24T10:05:30Z</time>
      </trkpt>
      
      <trkpt lat="44.665837" lon="6.935360">
        <ele>2452.0</ele>
        <time>2013-09-24T10:05:45Z</time>
      </trkpt>
      
      <trkpt lat="44.665858" lon="6.935608">
        <ele>2455.5</ele>
        <time>2013-09-24T10:06:04Z</time>
      </trkpt>
      
      <trkpt lat="44.665872" lon="6.935847">
        <ele>2459.1</ele>
        <time>2013-09-24T10:06:44Z</time>
      </trkpt>
      
      <trkpt lat="44.665852" lon="6.935970">
        <ele>2460.5</ele>
        <time>2013-09-24T10:06:51Z</time>
      </trkpt>
      
      <trkpt lat="44.665767" lon="6.936295">
        <ele>2464.7</ele>
        <time>2013-09-24T10:07:12Z</time>
      </trkpt>
      
      <trkpt lat="44.665627" lon="6.936443">
        <ele>2467.3</ele>
        <time>2013-09-24T10:07:27Z</time>
      </trkpt>
      
      <trkpt lat="44.665512" lon="6.936610">
        <ele>2469.7</ele>
        <time>2013-09-24T10:07:43Z</time>
      </trkpt>
      
      <trkpt lat="44.665463" lon="6.936833">
        <ele>2472.1</ele>
        <time>2013-09-24T10:07:59Z</time>
      </trkpt>
      
      <trkpt lat="44.665427" lon="6.937073">
        <ele>2474.3</ele>
        <time>2013-09-24T10:08:15Z</time>
      </trkpt>
      
      <trkpt lat="44.665423" lon="6.937297">
        <ele>2476.2</ele>
        <time>2013-09-24T10:08:31Z</time>
      </trkpt>
      
      <trkpt lat="44.665348" lon="6.937473">
        <ele>2478.1</ele>
        <time>2013-09-24T10:09:06Z</time>
      </trkpt>
      
      <trkpt lat="44.665210" lon="6.937658">
        <ele>2479.0</ele>
        <time>2013-09-24T10:09:17Z</time>
      </trkpt>
      
      <trkpt lat="44.665241" lon="6.937934">
        <ele>2478.9</ele>
        <time>2013-09-24T10:09:30Z</time>
      </trkpt>
      
      <trkpt lat="44.665164" lon="6.938165">
        <ele>2479.0</ele>
        <time>2013-09-24T10:10:41Z</time>
      </trkpt>
      
      <trkpt lat="44.665141" lon="6.938334">
        <ele>2479.0</ele>
        <time>2013-09-24T10:10:52Z</time>
      </trkpt>
      
      <trkpt lat="44.665033" lon="6.938572">
        <ele>2479.8</ele>
        <time>2013-09-24T10:11:05Z</time>
      </trkpt>
      
      <trkpt lat="44.664941" lon="6.938833">
        <ele>2481.4</ele>
        <time>2013-09-24T10:11:18Z</time>
      </trkpt>
      
      <trkpt lat="44.664887" lon="6.939064">
        <ele>2482.8</ele>
        <time>2013-09-24T10:11:31Z</time>
      </trkpt>
      
      <trkpt lat="44.664834" lon="6.939256">
        <ele>2484.7</ele>
        <time>2013-09-24T10:11:43Z</time>
      </trkpt>
      
      <trkpt lat="44.664772" lon="6.939409">
        <ele>2487.0</ele>
        <time>2013-09-24T10:11:58Z</time>
      </trkpt>
      
      <trkpt lat="44.664680" lon="6.939663">
        <ele>2490.7</ele>
        <time>2013-09-24T10:12:18Z</time>
      </trkpt>
      
      <trkpt lat="44.664672" lon="6.939817">
        <ele>2492.4</ele>
        <time>2013-09-24T10:12:37Z</time>
      </trkpt>
      
      <trkpt lat="44.664557" lon="6.940070">
        <ele>2495.6</ele>
        <time>2013-09-24T10:12:50Z</time>
      </trkpt>
      
      <trkpt lat="44.664445" lon="6.940147">
        <ele>2496.8</ele>
        <time>2013-09-24T10:24:37Z</time>
      </trkpt>
      
      <trkpt lat="44.664200" lon="6.940210">
        <ele>2498.6</ele>
        <time>2013-09-24T10:25:23Z</time>
      </trkpt>
      
      <trkpt lat="44.664037" lon="6.940270">
        <ele>2500.2</ele>
        <time>2013-09-24T10:25:42Z</time>
      </trkpt>
      
      <trkpt lat="44.663872" lon="6.940313">
        <ele>2502.0</ele>
        <time>2013-09-24T10:26:00Z</time>
      </trkpt>
      
      <trkpt lat="44.663703" lon="6.940313">
        <ele>2503.7</ele>
        <time>2013-09-24T10:26:21Z</time>
      </trkpt>
      
      <trkpt lat="44.663535" lon="6.940375">
        <ele>2505.5</ele>
        <time>2013-09-24T10:26:44Z</time>
      </trkpt>
      
      <trkpt lat="44.663377" lon="6.940318">
        <ele>2506.9</ele>
        <time>2013-09-24T10:27:06Z</time>
      </trkpt>
      
      <trkpt lat="44.663212" lon="6.940322">
        <ele>2510.2</ele>
        <time>2013-09-24T10:27:35Z</time>
      </trkpt>
      
      <trkpt lat="44.663128" lon="6.940375">
        <ele>2512.3</ele>
        <time>2013-09-24T10:27:52Z</time>
      </trkpt>
      
      <trkpt lat="44.662915" lon="6.940513">
        <ele>2517.2</ele>
        <time>2013-09-24T10:28:56Z</time>
      </trkpt>
      
      <trkpt lat="44.662770" lon="6.940630">
        <ele>2520.4</ele>
        <time>2013-09-24T10:30:07Z</time>
      </trkpt>
      
      <trkpt lat="44.662660" lon="6.940820">
        <ele>2522.6</ele>
        <time>2013-09-24T10:30:30Z</time>
      </trkpt>
      
      <trkpt lat="44.662490" lon="6.940885">
        <ele>2526.8</ele>
        <time>2013-09-24T10:31:14Z</time>
      </trkpt>
      
      <trkpt lat="44.662390" lon="6.940697">
        <ele>2530.0</ele>
        <time>2013-09-24T10:31:31Z</time>
      </trkpt>
      
      <trkpt lat="44.662288" lon="6.940722">
        <ele>2533.2</ele>
        <time>2013-09-24T10:32:05Z</time>
      </trkpt>
      
      <trkpt lat="44.662230" lon="6.940500">
        <ele>2536.3</ele>
        <time>2013-09-24T10:32:23Z</time>
      </trkpt>
      
      <trkpt lat="44.662092" lon="6.940388">
        <ele>2541.9</ele>
        <time>2013-09-24T10:33:02Z</time>
      </trkpt>
      
      <trkpt lat="44.661943" lon="6.940500">
        <ele>2546.4</ele>
        <time>2013-09-24T10:33:32Z</time>
      </trkpt>
      
      <trkpt lat="44.661798" lon="6.940627">
        <ele>2550.0</ele>
        <time>2013-09-24T10:34:03Z</time>
      </trkpt>
      
      <trkpt lat="44.661657" lon="6.940772">
        <ele>2553.2</ele>
        <time>2013-09-24T10:34:36Z</time>
      </trkpt>
      
      <trkpt lat="44.661508" lon="6.940723">
        <ele>2560.8</ele>
        <time>2013-09-24T10:35:23Z</time>
      </trkpt>
      
      <trkpt lat="44.661417" lon="6.940698">
        <ele>2565.6</ele>
        <time>2013-09-24T10:40:06Z</time>
      </trkpt>
      
      <trkpt lat="44.661213" lon="6.940905">
        <ele>2574.1</ele>
        <time>2013-09-24T10:41:16Z</time>
      </trkpt>
      
      <trkpt lat="44.661082" lon="6.941045">
        <ele>2581.0</ele>
        <time>2013-09-24T10:41:52Z</time>
      </trkpt>
      
      <trkpt lat="44.661003" lon="6.941247">
        <ele>2585.8</ele>
        <time>2013-09-24T10:42:28Z</time>
      </trkpt>
      
      <trkpt lat="44.660838" lon="6.941238">
        <ele>2593.6</ele>
        <time>2013-09-24T10:43:06Z</time>
      </trkpt>
      
      <trkpt lat="44.660723" lon="6.941398">
        <ele>2600.8</ele>
        <time>2013-09-24T10:43:35Z</time>
      </trkpt>
      
      <trkpt lat="44.660602" lon="6.941568">
        <ele>2607.6</ele>
        <time>2013-09-24T10:44:05Z</time>
      </trkpt>
      
      <trkpt lat="44.660470" lon="6.941715">
        <ele>2614.9</ele>
        <time>2013-09-24T10:44:46Z</time>
      </trkpt>
      
      <trkpt lat="44.660335" lon="6.941582">
        <ele>2621.4</ele>
        <time>2013-09-24T10:45:15Z</time>
      </trkpt>
      
      <trkpt lat="44.660180" lon="6.941700">
        <ele>2629.2</ele>
        <time>2013-09-24T10:45:54Z</time>
      </trkpt>
      
      <trkpt lat="44.660022" lon="6.941783">
        <ele>2638.7</ele>
        <time>2013-09-24T10:46:32Z</time>
      </trkpt>
      
      <trkpt lat="44.659858" lon="6.941838">
        <ele>2647.6</ele>
        <time>2013-09-24T10:46:55Z</time>
      </trkpt>
      
      <trkpt lat="44.659700" lon="6.941747">
        <ele>2654.2</ele>
        <time>2013-09-24T10:47:31Z</time>
      </trkpt>
      
      <trkpt lat="44.659550" lon="6.941633">
        <ele>2661.2</ele>
        <time>2013-09-24T10:48:05Z</time>
      </trkpt>
      
      <trkpt lat="44.659483" lon="6.941487">
        <ele>2666.5</ele>
        <time>2013-09-24T10:49:02Z</time>
      </trkpt>
      
      <trkpt lat="44.659393" lon="6.941467">
        <ele>2671.6</ele>
        <time>2013-09-24T10:49:29Z</time>
      </trkpt>
      
      <trkpt lat="44.659158" lon="6.941353">
        <ele>2685.4</ele>
        <time>2013-09-24T10:50:28Z</time>
      </trkpt>
      
      <trkpt lat="44.659067" lon="6.941385">
        <ele>2687.7</ele>
        <time>2013-09-24T10:50:44Z</time>
      </trkpt>
      
      <trkpt lat="44.658833" lon="6.941472">
        <ele>2693.5</ele>
        <time>2013-09-24T10:51:34Z</time>
      </trkpt>
      
      <trkpt lat="44.658743" lon="6.941472">
        <ele>2696.3</ele>
        <time>2013-09-24T10:51:49Z</time>
      </trkpt>
      
      <trkpt lat="44.658533" lon="6.941663">
        <ele>2700.6</ele>
        <time>2013-09-24T10:52:41Z</time>
      </trkpt>
      
      <trkpt lat="44.658442" lon="6.941702">
        <ele>2703.8</ele>
        <time>2013-09-24T10:52:53Z</time>
      </trkpt>
      
      <trkpt lat="44.658258" lon="6.941533">
        <ele>2709.8</ele>
        <time>2013-09-24T10:53:38Z</time>
      </trkpt>
      
      <trkpt lat="44.658110" lon="6.941400">
        <ele>2713.7</ele>
        <time>2013-09-24T10:53:58Z</time>
      </trkpt>
      
      <trkpt lat="44.657945" lon="6.941325">
        <ele>2717.3</ele>
        <time>2013-09-24T10:54:14Z</time>
      </trkpt>
      
      <trkpt lat="44.657813" lon="6.941198">
        <ele>2720.3</ele>
        <time>2013-09-24T10:54:29Z</time>
      </trkpt>
      
      <trkpt lat="44.657725" lon="6.941008">
        <ele>2722.9</ele>
        <time>2013-09-24T10:55:21Z</time>
      </trkpt>
      
      <trkpt lat="44.657560" lon="6.940997">
        <ele>2725.5</ele>
        <time>2013-09-24T10:56:03Z</time>
      </trkpt>
      
      <trkpt lat="44.657402" lon="6.940905">
        <ele>2727.5</ele>
        <time>2013-09-24T10:56:30Z</time>
      </trkpt>
      
      <trkpt lat="44.657272" lon="6.940942">
        <ele>2728.3</ele>
        <time>2013-09-24T10:57:40Z</time>
      </trkpt>
      
      <trkpt lat="44.657122" lon="6.940880">
        <ele>2729.6</ele>
        <time>2013-09-24T10:57:55Z</time>
      </trkpt>
      
      <trkpt lat="44.657082" lon="6.940657">
        <ele>2730.1</ele>
        <time>2013-09-24T10:58:13Z</time>
      </trkpt>
      
      <trkpt lat="44.657032" lon="6.940433">
        <ele>2730.8</ele>
        <time>2013-09-24T10:58:45Z</time>
      </trkpt>
      
      <trkpt lat="44.656883" lon="6.940323">
        <ele>2732.5</ele>
        <time>2013-09-24T10:59:08Z</time>
      </trkpt>
      
      <trkpt lat="44.656852" lon="6.940108">
        <ele>2733.3</ele>
        <time>2013-09-24T10:59:24Z</time>
      </trkpt>
      
      <trkpt lat="44.656762" lon="6.940130">
        <ele>2734.4</ele>
        <time>2013-09-24T11:00:30Z</time>
      </trkpt>
      
      <trkpt lat="44.656537" lon="6.940148">
        <ele>2740.3</ele>
        <time>2013-09-24T11:01:14Z</time>
      </trkpt>
      
      <trkpt lat="44.656425" lon="6.940107">
        <ele>2744.5</ele>
        <time>2013-09-24T11:01:46Z</time>
      </trkpt>
      
      <trkpt lat="44.656288" lon="6.939878">
        <ele>2750.5</ele>
        <time>2013-09-24T11:02:50Z</time>
      </trkpt>
      
      <trkpt lat="44.656192" lon="6.939750">
        <ele>2754.8</ele>
        <time>2013-09-24T11:03:18Z</time>
      </trkpt>
      
      <trkpt lat="44.656117" lon="6.939542">
        <ele>2758.9</ele>
        <time>2013-09-24T11:04:26Z</time>
      </trkpt>
      
      <trkpt lat="44.656157" lon="6.939318">
        <ele>2758.1</ele>
        <time>2013-09-24T11:04:46Z</time>
      </trkpt>
      
      <trkpt lat="44.656002" lon="6.939408">
        <ele>2764.6</ele>
        <time>2013-09-24T11:05:19Z</time>
      </trkpt>
      
      <trkpt lat="44.655908" lon="6.939413">
        <ele>2768.6</ele>
        <time>2013-09-24T11:05:31Z</time>
      </trkpt>
      
      <trkpt lat="44.655872" lon="6.939148">
        <ele>2772.4</ele>
        <time>2013-09-24T11:06:27Z</time>
      </trkpt>
      
      <trkpt lat="44.655790" lon="6.939073">
        <ele>2776.5</ele>
        <time>2013-09-24T11:06:51Z</time>
      </trkpt>
      
      <trkpt lat="44.655718" lon="6.938860">
        <ele>2781.3</ele>
        <time>2013-09-24T11:07:27Z</time>
      </trkpt>
      
      <trkpt lat="44.655677" lon="6.938660">
        <ele>2785.0</ele>
        <time>2013-09-24T11:08:09Z</time>
      </trkpt>
      
      <trkpt lat="44.655643" lon="6.938492">
        <ele>2788.2</ele>
        <time>2013-09-24T11:08:43Z</time>
      </trkpt>
      
      <trkpt lat="44.655480" lon="6.938423">
        <ele>2797.0</ele>
        <time>2013-09-24T11:09:14Z</time>
      </trkpt>
      
      <trkpt lat="44.655310" lon="6.938430">
        <ele>2805.5</ele>
        <time>2013-09-24T11:09:39Z</time>
      </trkpt>
      
      <trkpt lat="44.655167" lon="6.938303">
        <ele>2814.9</ele>
        <time>2013-09-24T11:10:05Z</time>
      </trkpt>
      
      <trkpt lat="44.655090" lon="6.938233">
        <ele>2819.6</ele>
        <time>2013-09-24T11:10:18Z</time>
      </trkpt>
      
      <trkpt lat="44.654840" lon="6.938262">
        <ele>2828.9</ele>
        <time>2013-09-24T11:10:57Z</time>
      </trkpt>
      
      <trkpt lat="44.654675" lon="6.938213">
        <ele>2834.9</ele>
        <time>2013-09-24T11:11:29Z</time>
      </trkpt>
      
      <trkpt lat="44.654502" lon="6.938217">
        <ele>2840.0</ele>
        <time>2013-09-24T11:11:54Z</time>
      </trkpt>
      
      <trkpt lat="44.654327" lon="6.938213">
        <ele>2845.7</ele>
        <time>2013-09-24T11:12:33Z</time>
      </trkpt>
      
      <trkpt lat="44.654143" lon="6.938118">
        <ele>2853.4</ele>
        <time>2013-09-24T11:14:52Z</time>
      </trkpt>
      
      <trkpt lat="44.654003" lon="6.937998">
        <ele>2861.3</ele>
        <time>2013-09-24T11:15:51Z</time>
      </trkpt>
      
      <trkpt lat="44.653912" lon="6.938028">
        <ele>2864.4</ele>
        <time>2013-09-24T11:16:01Z</time>
      </trkpt>
      
      <trkpt lat="44.653830" lon="6.937830">
        <ele>2871.7</ele>
        <time>2013-09-24T11:19:09Z</time>
      </trkpt>
      
      <trkpt lat="44.653675" lon="6.937890">
        <ele>2876.5</ele>
        <time>2013-09-24T11:19:45Z</time>
      </trkpt>
      
      <trkpt lat="44.653557" lon="6.937717">
        <ele>2885.2</ele>
        <time>2013-09-24T11:20:17Z</time>
      </trkpt>
      
      <trkpt lat="44.653414" lon="6.937660">
        <ele>2892.2</ele>
        <time>2013-09-24T11:21:12Z</time>
      </trkpt>
      
      <trkpt lat="44.653432" lon="6.937518">
        <ele>2894.7</ele>
        <time>2013-09-24T11:22:11Z</time>
      </trkpt>
      
      <trkpt lat="44.653295" lon="6.937382">
        <ele>2903.7</ele>
        <time>2013-09-24T11:23:33Z</time>
      </trkpt>
      
      <trkpt lat="44.653137" lon="6.937322">
        <ele>2912.9</ele>
        <time>2013-09-24T11:24:18Z</time>
      </trkpt>
      
      <trkpt lat="44.653103" lon="6.937445">
        <ele>2911.7</ele>
        <time>2013-09-24T11:28:01Z</time>
      </trkpt>
      
      <trkpt lat="44.653068" lon="6.937782">
        <ele>2907.3</ele>
        <time>2013-09-24T11:28:39Z</time>
      </trkpt>
      
      <trkpt lat="44.653028" lon="6.938017">
        <ele>2905.6</ele>
        <time>2013-09-24T11:28:57Z</time>
      </trkpt>
      
      <trkpt lat="44.652992" lon="6.938138">
        <ele>2906.0</ele>
        <time>2013-09-24T11:29:07Z</time>
      </trkpt>
      
      <trkpt lat="44.652870" lon="6.938428">
        <ele>2910.2</ele>
        <time>2013-09-24T11:29:45Z</time>
      </trkpt>
      
      <trkpt lat="44.652925" lon="6.938538">
        <ele>2905.6</ele>
        <time>2013-09-24T11:30:22Z</time>
      </trkpt>
      
      <trkpt lat="44.652868" lon="6.938870">
        <ele>2906.5</ele>
        <time>2013-09-24T11:31:05Z</time>
      </trkpt>
      
      <trkpt lat="44.652813" lon="6.939088">
        <ele>2908.3</ele>
        <time>2013-09-24T11:31:26Z</time>
      </trkpt>
      
      <trkpt lat="44.652790" lon="6.939330">
        <ele>2909.6</ele>
        <time>2013-09-24T11:31:51Z</time>
      </trkpt>
      
      <trkpt lat="44.652760" lon="6.939567">
        <ele>2912.1</ele>
        <time>2013-09-24T11:32:14Z</time>
      </trkpt>
      
      <trkpt lat="44.652765" lon="6.939697">
        <ele>2912.0</ele>
        <time>2013-09-24T11:32:28Z</time>
      </trkpt>
      
      <trkpt lat="44.652753" lon="6.940022">
        <ele>2913.8</ele>
        <time>2013-09-24T11:33:08Z</time>
      </trkpt>
      
      <trkpt lat="44.652812" lon="6.940248">
        <ele>2912.8</ele>
        <time>2013-09-24T11:33:29Z</time>
      </trkpt>
      
      <trkpt lat="44.652840" lon="6.940475">
        <ele>2913.4</ele>
        <time>2013-09-24T11:33:54Z</time>
      </trkpt>
      
      <trkpt lat="44.652872" lon="6.940705">
        <ele>2914.0</ele>
        <time>2013-09-24T11:34:18Z</time>
      </trkpt>
      
      <trkpt lat="44.652935" lon="6.940922">
        <ele>2911.0</ele>
        <time>2013-09-24T11:34:36Z</time>
      </trkpt>
      
      <trkpt lat="44.652990" lon="6.941150">
        <ele>2907.9</ele>
        <time>2013-09-24T11:35:04Z</time>
      </trkpt>
      
      <trkpt lat="44.652990" lon="6.941393">
        <ele>2909.4</ele>
        <time>2013-09-24T11:35:26Z</time>
      </trkpt>
      
      <trkpt lat="44.652922" lon="6.941490">
        <ele>2916.5</ele>
        <time>2013-09-24T11:35:39Z</time>
      </trkpt>
      
      <trkpt lat="44.652873" lon="6.941613">
        <ele>2922.3</ele>
        <time>2013-09-24T11:38:17Z</time>
      </trkpt>
      
      <trkpt lat="44.652775" lon="6.941922">
        <ele>2936.1</ele>
        <time>2013-09-24T11:53:29Z</time>
      </trkpt>
      
      <trkpt lat="44.652790" lon="6.942048">
        <ele>2936.9</ele>
        <time>2013-09-24T11:53:48Z</time>
      </trkpt>
      
      <trkpt lat="44.652818" lon="6.942377">
        <ele>2939.6</ele>
        <time>2013-09-24T11:54:19Z</time>
      </trkpt>
      
      <trkpt lat="44.652863" lon="6.942497">
        <ele>2938.1</ele>
        <time>2013-09-24T11:54:52Z</time>
      </trkpt>
      
      <trkpt lat="44.652908" lon="6.942808">
        <ele>2941.6</ele>
        <time>2013-09-24T11:55:25Z</time>
      </trkpt>
      
      <trkpt lat="44.653047" lon="6.942940">
        <ele>2935.6</ele>
        <time>2013-09-24T11:55:45Z</time>
      </trkpt>
      
      <trkpt lat="44.653127" lon="6.943005">
        <ele>2932.0</ele>
        <time>2013-09-24T11:55:56Z</time>
      </trkpt>
      
      <trkpt lat="44.653262" lon="6.943300">
        <ele>2932.0</ele>
        <time>2013-09-24T11:56:24Z</time>
      </trkpt>
      <trkpt lat="44.653275" lon="6.943417">
        <ele>2935.4</ele>
        <time>2013-09-24T11:56:49Z</time>
      </trkpt>
      
      <trkpt lat="44.653352" lon="6.943628">
        <ele>2939.1</ele>
        <time>2013-09-24T11:57:02Z</time>
      </trkpt>
      
      <trkpt lat="44.653452" lon="6.943808">
        <ele>2937.8</ele>
        <time>2013-09-24T11:57:24Z</time>
      </trkpt>
      
      <trkpt lat="44.653490" lon="6.944032">
        <ele>2942.6</ele>
        <time>2013-09-24T11:57:41Z</time>
      </trkpt>
      
      <trkpt lat="44.653500" lon="6.944265">
        <ele>2950.3</ele>
        <time>2013-09-24T11:58:02Z</time>
      </trkpt>
      
      <trkpt lat="44.653543" lon="6.944383">
        <ele>2950.2</ele>
        <time>2013-09-24T11:58:13Z</time>
      </trkpt>
      
      <trkpt lat="44.653678" lon="6.944668">
        <ele>2945.6</ele>
        <time>2013-09-24T11:58:38Z</time>
      </trkpt>
      
      <trkpt lat="44.653687" lon="6.944893">
        <ele>2951.7</ele>
        <time>2013-09-24T11:58:55Z</time>
      </trkpt>
      
      <trkpt lat="44.653670" lon="6.945125">
        <ele>2963.5</ele>
        <time>2013-09-24T11:59:27Z</time>
      </trkpt>
      
      <trkpt lat="44.653763" lon="6.945327">
        <ele>2963.2</ele>
        <time>2013-09-24T11:59:53Z</time>
      </trkpt>
      
      <trkpt lat="44.653782" lon="6.945577">
        <ele>2974.4</ele>
        <time>2013-09-24T12:00:24Z</time>
      </trkpt>
      
      <trkpt lat="44.653810" lon="6.945697">
        <ele>2977.9</ele>
        <time>2013-09-24T12:00:44Z</time>
      </trkpt>
      
      <trkpt lat="44.653825" lon="6.946028">
        <ele>2992.2</ele>
        <time>2013-09-24T12:01:39Z</time>
      </trkpt>
      
      <trkpt lat="44.653863" lon="6.946143">
        <ele>2992.8</ele>
        <time>2013-09-24T12:01:54Z</time>
      </trkpt>
      
      <trkpt lat="44.653923" lon="6.946492">
        <ele>3001.7</ele>
        <time>2013-09-24T12:02:54Z</time>
      </trkpt>
      
      <trkpt lat="44.653875" lon="6.946728">
        <ele>3016.0</ele>
        <time>2013-09-24T12:03:25Z</time>
      </trkpt>
      
      <trkpt lat="44.653973" lon="6.946923">
        <ele>3022.6</ele>
        <time>2013-09-24T12:03:51Z</time>
      </trkpt>
      
      <trkpt lat="44.653922" lon="6.947032">
        <ele>3033.9</ele>
        <time>2013-09-24T12:04:05Z</time>
      </trkpt>
      
      <trkpt lat="44.653885" lon="6.947377">
        <ele>3058.5</ele>
        <time>2013-09-24T12:05:09Z</time>
      </trkpt>
      
      <trkpt lat="44.653848" lon="6.947603">
        <ele>3072.6</ele>
        <time>2013-09-24T12:05:52Z</time>
      </trkpt>
      
      <trkpt lat="44.653790" lon="6.947703">
        <ele>3077.1</ele>
        <time>2013-09-24T12:07:03Z</time>
      </trkpt>
      
      <trkpt lat="44.653710" lon="6.947598">
        <ele>3076.2</ele>
        <time>2013-09-24T12:07:58Z</time>
      </trkpt>
      
      <trkpt lat="44.653644" lon="6.947687">
        <ele>3079.6</ele>
        <time>2013-09-24T12:08:20Z</time>
      </trkpt>
      
      <trkpt lat="44.653600" lon="6.947535">
        <ele>3078.7</ele>
        <time>2013-09-24T12:09:27Z</time>
      </trkpt>
      
      <trkpt lat="44.653420" lon="6.947588">
        <ele>3084.9</ele>
        <time>2013-09-24T12:10:32Z</time>
      </trkpt>
      <trkpt lat="44.653275" lon="6.947625">
        <ele>3085.6</ele>
        <time>2013-09-24T12:10:43Z</time>
      </trkpt>
      
      <trkpt lat="44.653130" lon="6.947748">
        <ele>3079.8</ele>
        <time>2013-09-24T12:10:56Z</time>
      </trkpt>
      
      <trkpt lat="44.653008" lon="6.947893">
        <ele>3073.9</ele>
        <time>2013-09-24T12:11:10Z</time>
      </trkpt>
      
      <trkpt lat="44.652853" lon="6.947990">
        <ele>3068.0</ele>
        <time>2013-09-24T12:11:27Z</time>
      </trkpt>
      
      <trkpt lat="44.652758" lon="6.947962">
        <ele>3066.0</ele>
        <time>2013-09-24T12:11:39Z</time>
      </trkpt>
      
      <trkpt lat="44.652503" lon="6.947982">
        <ele>3058.5</ele>
        <time>2013-09-24T12:15:54Z</time>
      </trkpt>
      
      <trkpt lat="44.652362" lon="6.948015">
        <ele>3056.7</ele>
        <time>2013-09-24T12:16:13Z</time>
      </trkpt>
      
      <trkpt lat="44.652195" lon="6.948055">
        <ele>3054.4</ele>
        <time>2013-09-24T12:16:39Z</time>
      </trkpt>
      
      <trkpt lat="44.652043" lon="6.948175">
        <ele>3050.3</ele>
        <time>2013-09-24T12:17:05Z</time>
      </trkpt>
      
      <trkpt lat="44.652103" lon="6.948070">
        <ele>3053.4</ele>
        <time>2013-09-24T12:18:51Z</time>
      </trkpt>
      
      <trkpt lat="44.652302" lon="6.947960">
        <ele>3057.4</ele>
        <time>2013-09-24T12:19:22Z</time>
      </trkpt>
      
      <trkpt lat="44.652455" lon="6.947888">
        <ele>3060.5</ele>
        <time>2013-09-24T12:19:55Z</time>
      </trkpt>
      
      <trkpt lat="44.652618" lon="6.947888">
        <ele>3064.1</ele>
        <time>2013-09-24T12:20:38Z</time>
      </trkpt>
      
      <trkpt lat="44.652708" lon="6.947943">
        <ele>3064.9</ele>
        <time>2013-09-24T12:21:14Z</time>
      </trkpt>
      
      <trkpt lat="44.652942" lon="6.947977">
        <ele>3070.6</ele>
        <time>2013-09-24T12:21:51Z</time>
      </trkpt>
      
      <trkpt lat="44.653107" lon="6.947943">
        <ele>3075.6</ele>
        <time>2013-09-24T12:22:05Z</time>
      </trkpt>
      
      <trkpt lat="44.653260" lon="6.947862">
        <ele>3081.2</ele>
        <time>2013-09-24T12:22:20Z</time>
      </trkpt>
      
      <trkpt lat="44.653408" lon="6.947755">
        <ele>3083.9</ele>
        <time>2013-09-24T12:22:39Z</time>
      </trkpt>
      
      <trkpt lat="44.653240" lon="6.947750">
        <ele>3082.6</ele>
        <time>2013-09-24T12:23:13Z</time>
      </trkpt>
      
      <trkpt lat="44.653268" lon="6.947623">
        <ele>3085.5</ele>
        <time>2013-09-24T12:23:27Z</time>
      </trkpt>
      
      <trkpt lat="44.653498" lon="6.947620">
        <ele>3082.5</ele>
        <time>2013-09-24T12:24:09Z</time>
      </trkpt>
      
      <trkpt lat="44.653592" lon="6.947578">
        <ele>3079.5</ele>
        <time>2013-09-24T12:24:40Z</time>
      </trkpt>
      
      <trkpt lat="44.653737" lon="6.947593">
        <ele>3075.4</ele>
        <time>2013-09-24T12:25:43Z</time>
      </trkpt>
      
      <trkpt lat="44.653902" lon="6.947502">
        <ele>3066.4</ele>
        <time>2013-09-24T12:26:34Z</time>
      </trkpt>
      
      <trkpt lat="44.653862" lon="6.947383">
        <ele>3060.3</ele>
        <time>2013-09-24T12:26:44Z</time>
      </trkpt>
      
      <trkpt lat="44.653862" lon="6.947095">
        <ele>3041.6</ele>
        <time>2013-09-24T12:27:25Z</time>
      </trkpt>
      
      <trkpt lat="44.653888" lon="6.946860">
        <ele>3024.6</ele>
        <time>2013-09-24T12:27:45Z</time>
      </trkpt>
      
      <trkpt lat="44.653877" lon="6.946643">
        <ele>3011.5</ele>
        <time>2013-09-24T12:28:50Z</time>
      </trkpt>
      
      <trkpt lat="44.653917" lon="6.946412">
        <ele>2999.3</ele>
        <time>2013-09-24T12:29:13Z</time>
      </trkpt>
      
      <trkpt lat="44.653858" lon="6.946190">
        <ele>2995.1</ele>
        <time>2013-09-24T12:29:34Z</time>
      </trkpt>
      
      <trkpt lat="44.653788" lon="6.945975">
        <ele>2993.3</ele>
        <time>2013-09-24T12:29:51Z</time>
      </trkpt>
      
      <trkpt lat="44.653830" lon="6.945755">
        <ele>2979.7</ele>
        <time>2013-09-24T12:30:16Z</time>
      </trkpt>
      
      <trkpt lat="44.653780" lon="6.945538">
        <ele>2972.6</ele>
        <time>2013-09-24T12:30:39Z</time>
      </trkpt>
      
      <trkpt lat="44.653752" lon="6.945295">
        <ele>2962.2</ele>
        <time>2013-09-24T12:31:04Z</time>
      </trkpt>
      
      <trkpt lat="44.653675" lon="6.945088">
        <ele>2961.1</ele>
        <time>2013-09-24T12:31:21Z</time>
      </trkpt>
      
      <trkpt lat="44.653552" lon="6.944923">
        <ele>2970.5</ele>
        <time>2013-09-24T12:31:37Z</time>
      </trkpt>
      
      <trkpt lat="44.653525" lon="6.944688">
        <ele>2964.6</ele>
        <time>2013-09-24T12:31:55Z</time>
      </trkpt>
      
      <trkpt lat="44.653532" lon="6.944443">
        <ele>2954.1</ele>
        <time>2013-09-24T12:32:10Z</time>
      </trkpt>
      
      <trkpt lat="44.653515" lon="6.944210">
        <ele>2946.6</ele>
        <time>2013-09-24T12:32:26Z</time>
      </trkpt>
      
      <trkpt lat="44.653495" lon="6.943982">
        <ele>2940.1</ele>
        <time>2013-09-24T12:32:40Z</time>
      </trkpt>
      
      <trkpt lat="44.653442" lon="6.943757">
        <ele>2936.7</ele>
        <time>2013-09-24T12:32:54Z</time>
      </trkpt>
      
      <trkpt lat="44.653335" lon="6.943600">
        <ele>2939.4</ele>
        <time>2013-09-24T12:33:11Z</time>
      </trkpt>
      
      <trkpt lat="44.653282" lon="6.943370">
        <ele>2933.0</ele>
        <time>2013-09-24T12:33:23Z</time>
      </trkpt>
      
      <trkpt lat="44.653202" lon="6.943175">
        <ele>2932.2</ele>
        <time>2013-09-24T12:33:35Z</time>
      </trkpt>
      
      <trkpt lat="44.653113" lon="6.942972">
        <ele>2932.1</ele>
        <time>2013-09-24T12:33:49Z</time>
      </trkpt>
      
      <trkpt lat="44.652968" lon="6.942837">
        <ele>2938.5</ele>
        <time>2013-09-24T12:34:08Z</time>
      </trkpt>
      
      <trkpt lat="44.652947" lon="6.942707">
        <ele>2937.1</ele>
        <time>2013-09-24T12:34:18Z</time>
      </trkpt>
      
      <trkpt lat="44.652845" lon="6.942435">
        <ele>2938.6</ele>
        <time>2013-09-24T12:34:54Z</time>
      </trkpt>
      
      <trkpt lat="44.652808" lon="6.942203">
        <ele>2937.6</ele>
        <time>2013-09-24T12:35:08Z</time>
      </trkpt>
      
      <trkpt lat="44.652827" lon="6.942073">
        <ele>2933.9</ele>
        <time>2013-09-24T12:35:25Z</time>
      </trkpt>
      
      <trkpt lat="44.652752" lon="6.941738">
        <ele>2935.6</ele>
        <time>2013-09-24T12:36:40Z</time>
      </trkpt>
      
      <trkpt lat="44.652795" lon="6.941520">
        <ele>2928.8</ele>
        <time>2013-09-24T12:37:13Z</time>
      </trkpt>
      
      <trkpt lat="44.652900" lon="6.941335">
        <ele>2917.3</ele>
        <time>2013-09-24T12:37:38Z</time>
      </trkpt>
      
      <trkpt lat="44.652870" lon="6.941210">
        <ele>2919.0</ele>
        <time>2013-09-24T12:37:47Z</time>
      </trkpt>
      
      <trkpt lat="44.652783" lon="6.940903">
        <ele>2923.3</ele>
        <time>2013-09-24T12:38:36Z</time>
      </trkpt>
      
      <trkpt lat="44.652738" lon="6.940677">
        <ele>2924.0</ele>
        <time>2013-09-24T12:38:53Z</time>
      </trkpt>
      
      <trkpt lat="44.652677" lon="6.940457">
        <ele>2925.4</ele>
        <time>2013-09-24T12:39:16Z</time>
      </trkpt>
      
      <trkpt lat="44.652603" lon="6.940248">
        <ele>2927.7</ele>
        <time>2013-09-24T12:39:35Z</time>
      </trkpt>
      
      <trkpt lat="44.652588" lon="6.940023">
        <ele>2925.2</ele>
        <time>2013-09-24T12:39:56Z</time>
      </trkpt>
      
      <trkpt lat="44.652605" lon="6.939793">
        <ele>2923.2</ele>
        <time>2013-09-24T12:40:13Z</time>
      </trkpt>
      
      <trkpt lat="44.652585" lon="6.939548">
        <ele>2924.1</ele>
        <time>2013-09-24T12:40:38Z</time>
      </trkpt>
      
      <trkpt lat="44.652663" lon="6.939335">
        <ele>2918.3</ele>
        <time>2013-09-24T12:40:59Z</time>
      </trkpt>
      
      <trkpt lat="44.652727" lon="6.939110">
        <ele>2914.0</ele>
        <time>2013-09-24T12:41:22Z</time>
      </trkpt>
      
      <trkpt lat="44.652802" lon="6.938897">
        <ele>2910.7</ele>
        <time>2013-09-24T12:41:45Z</time>
      </trkpt>
      
      <trkpt lat="44.652823" lon="6.938682">
        <ele>2911.1</ele>
        <time>2013-09-24T12:42:02Z</time>
      </trkpt>
      
      <trkpt lat="44.652853" lon="6.938448">
        <ele>2911.2</ele>
        <time>2013-09-24T12:42:21Z</time>
      </trkpt>
      
      <trkpt lat="44.652918" lon="6.938225">
        <ele>2909.4</ele>
        <time>2013-09-24T12:42:59Z</time>
      </trkpt>
      
      <trkpt lat="44.652953" lon="6.938105">
        <ele>2909.0</ele>
        <time>2013-09-24T12:43:20Z</time>
      </trkpt>
      
      <trkpt lat="44.653035" lon="6.937772">
        <ele>2909.1</ele>
        <time>2013-09-24T12:43:55Z</time>
      </trkpt>
      
      <trkpt lat="44.653108" lon="6.937858">
        <ele>2903.7</ele>
        <time>2013-09-24T12:44:26Z</time>
      </trkpt>
      <trkpt lat="44.653275" lon="6.937835">
        <ele>2894.9</ele>
        <time>2013-09-24T12:45:13Z</time>
      </trkpt>
      
      <trkpt lat="44.653347" lon="6.937735">
        <ele>2893.1</ele>
        <time>2013-09-24T12:45:39Z</time>
      </trkpt>
      
      <trkpt lat="44.653550" lon="6.937663">
        <ele>2886.6</ele>
        <time>2013-09-24T12:46:28Z</time>
      </trkpt>
      
      <trkpt lat="44.653600" lon="6.937772">
        <ele>2882.1</ele>
        <time>2013-09-24T12:46:49Z</time>
      </trkpt>
      
      <trkpt lat="44.653770" lon="6.937918">
        <ele>2872.2</ele>
        <time>2013-09-24T12:47:31Z</time>
      </trkpt>
      
      <trkpt lat="44.653862" lon="6.937918">
        <ele>2868.5</ele>
        <time>2013-09-24T12:47:57Z</time>
      </trkpt>
      
      <trkpt lat="44.654070" lon="6.938038">
        <ele>2857.8</ele>
        <time>2013-09-24T12:48:45Z</time>
      </trkpt>
      
      <trkpt lat="44.654162" lon="6.938048">
        <ele>2854.0</ele>
        <time>2013-09-24T12:49:07Z</time>
      </trkpt>
      
      <trkpt lat="44.654397" lon="6.938143">
        <ele>2844.7</ele>
        <time>2013-09-24T12:49:55Z</time>
      </trkpt>
      
      <trkpt lat="44.654455" lon="6.938243">
        <ele>2840.9</ele>
        <time>2013-09-24T12:50:17Z</time>
      </trkpt>
      
      <trkpt lat="44.654698" lon="6.938210">
        <ele>2834.0</ele>
        <time>2013-09-24T12:50:45Z</time>
      </trkpt>
      
      <trkpt lat="44.654865" lon="6.938242">
        <ele>2828.3</ele>
        <time>2013-09-24T12:52:04Z</time>
      </trkpt>
      
      <trkpt lat="44.655035" lon="6.938223">
        <ele>2822.7</ele>
        <time>2013-09-24T12:52:27Z</time>
      </trkpt>
      
      <trkpt lat="44.655185" lon="6.938292">
        <ele>2814.1</ele>
        <time>2013-09-24T12:53:04Z</time>
      </trkpt>
      
      <trkpt lat="44.655267" lon="6.938372">
        <ele>2808.6</ele>
        <time>2013-09-24T12:53:12Z</time>
      </trkpt>
      
      <trkpt lat="44.655507" lon="6.938448">
        <ele>2795.6</ele>
        <time>2013-09-24T12:53:35Z</time>
      </trkpt>
      
      <trkpt lat="44.655665" lon="6.938505">
        <ele>2786.9</ele>
        <time>2013-09-24T12:53:53Z</time>
      </trkpt>
      
      <trkpt lat="44.655732" lon="6.938658">
        <ele>2782.4</ele>
        <time>2013-09-24T12:54:08Z</time>
      </trkpt>
      
      <trkpt lat="44.655783" lon="6.938768">
        <ele>2779.1</ele>
        <time>2013-09-24T12:54:26Z</time>
      </trkpt>
      
      <trkpt lat="44.655832" lon="6.939090">
        <ele>2774.6</ele>
        <time>2013-09-24T12:54:51Z</time>
      </trkpt>
      
      <trkpt lat="44.655957" lon="6.939160">
        <ele>2768.3</ele>
        <time>2013-09-24T12:55:10Z</time>
      </trkpt>
      
      <trkpt lat="44.655998" lon="6.939375">
        <ele>2764.9</ele>
        <time>2013-09-24T12:55:34Z</time>
      </trkpt>
      
      <trkpt lat="44.656155" lon="6.939370">
        <ele>2758.0</ele>
        <time>2013-09-24T12:55:57Z</time>
      </trkpt>
      
      <trkpt lat="44.656213" lon="6.939602">
        <ele>2754.5</ele>
        <time>2013-09-24T12:56:20Z</time>
      </trkpt>
      
      <trkpt lat="44.656248" lon="6.939838">
        <ele>2752.1</ele>
        <time>2013-09-24T12:56:40Z</time>
      </trkpt>
      
      <trkpt lat="44.656373" lon="6.939985">
        <ele>2746.9</ele>
        <time>2013-09-24T12:56:58Z</time>
      </trkpt>
      
      <trkpt lat="44.656508" lon="6.940110">
        <ele>2741.4</ele>
        <time>2013-09-24T12:57:27Z</time>
      </trkpt>
      
      <trkpt lat="44.656670" lon="6.940120">
        <ele>2735.5</ele>
        <time>2013-09-24T12:57:53Z</time>
      </trkpt>
      
      <trkpt lat="44.656833" lon="6.940042">
        <ele>2733.7</ele>
        <time>2013-09-24T12:58:10Z</time>
      </trkpt>
      
      <trkpt lat="44.656867" lon="6.940245">
        <ele>2732.8</ele>
        <time>2013-09-24T12:58:24Z</time>
      </trkpt>
      
      <trkpt lat="44.656985" lon="6.940407">
        <ele>2731.3</ele>
        <time>2013-09-24T12:58:38Z</time>
      </trkpt>
      
      <trkpt lat="44.657088" lon="6.940565">
        <ele>2730.1</ele>
        <time>2013-09-24T12:58:53Z</time>
      </trkpt>
      
      <trkpt lat="44.657132" lon="6.940680">
        <ele>2729.7</ele>
        <time>2013-09-24T12:59:04Z</time>
      </trkpt>
      
      <trkpt lat="44.657300" lon="6.940880">
        <ele>2728.3</ele>
        <time>2013-09-24T12:59:58Z</time>
      </trkpt>
      
      <trkpt lat="44.657398" lon="6.940898">
        <ele>2727.5</ele>
        <time>2013-09-24T13:00:11Z</time>
      </trkpt>
      
      <trkpt lat="44.657608" lon="6.940988">
        <ele>2724.7</ele>
        <time>2013-09-24T13:00:36Z</time>
      </trkpt>
      
      <trkpt lat="44.657767" lon="6.941075">
        <ele>2721.9</ele>
        <time>2013-09-24T13:00:53Z</time>
      </trkpt>
      
      <trkpt lat="44.657860" lon="6.941270">
        <ele>2719.1</ele>
        <time>2013-09-24T13:01:13Z</time>
      </trkpt>
      
      <trkpt lat="44.658007" lon="6.941380">
        <ele>2715.7</ele>
        <time>2013-09-24T13:01:26Z</time>
      </trkpt>
      
      <trkpt lat="44.658175" lon="6.941453">
        <ele>2712.1</ele>
        <time>2013-09-24T13:01:39Z</time>
      </trkpt>
      
      <trkpt lat="44.658313" lon="6.941573">
        <ele>2708.4</ele>
        <time>2013-09-24T13:01:51Z</time>
      </trkpt>
      
      <trkpt lat="44.658463" lon="6.941662">
        <ele>2702.9</ele>
        <time>2013-09-24T13:02:05Z</time>
      </trkpt>
      
      <trkpt lat="44.658623" lon="6.941585">
        <ele>2698.7</ele>
        <time>2013-09-24T13:02:20Z</time>
      </trkpt>
      
      <trkpt lat="44.658760" lon="6.941442">
        <ele>2696.3</ele>
        <time>2013-09-24T13:02:33Z</time>
      </trkpt>
      
      <trkpt lat="44.658925" lon="6.941412">
        <ele>2691.6</ele>
        <time>2013-09-24T13:02:48Z</time>
      </trkpt>
      
      <trkpt lat="44.659070" lon="6.941333">
        <ele>2688.5</ele>
        <time>2013-09-24T13:03:06Z</time>
      </trkpt>
      
      <trkpt lat="44.659235" lon="6.941348">
        <ele>2681.8</ele>
        <time>2013-09-24T13:03:25Z</time>
      </trkpt>
      
      <trkpt lat="44.659375" lon="6.941352">
        <ele>2674.4</ele>
        <time>2013-09-24T13:03:39Z</time>
      </trkpt>
      
      <trkpt lat="44.659525" lon="6.941448">
        <ele>2665.0</ele>
        <time>2013-09-24T13:03:57Z</time>
      </trkpt>
      
      <trkpt lat="44.659665" lon="6.941583">
        <ele>2656.0</ele>
        <time>2013-09-24T13:04:20Z</time>
      </trkpt>
      
      <trkpt lat="44.659743" lon="6.941648">
        <ele>2651.3</ele>
        <time>2013-09-24T13:04:31Z</time>
      </trkpt>
      
      <trkpt lat="44.659967" lon="6.941765">
        <ele>2641.0</ele>
        <time>2013-09-24T13:04:58Z</time>
      </trkpt>
      
      <trkpt lat="44.660132" lon="6.941697">
        <ele>2631.7</ele>
        <time>2013-09-24T13:05:15Z</time>
      </trkpt>
      
      <trkpt lat="44.660267" lon="6.941558">
        <ele>2625.1</ele>
        <time>2013-09-24T13:05:32Z</time>
      </trkpt>
      
      <trkpt lat="44.660423" lon="6.941610">
        <ele>2616.8</ele>
        <time>2013-09-24T13:05:50Z</time>
      </trkpt>
      
      <trkpt lat="44.660547" lon="6.941582">
        <ele>2610.5</ele>
        <time>2013-09-24T13:06:10Z</time>
      </trkpt>
      
      <trkpt lat="44.660648" lon="6.941392">
        <ele>2604.9</ele>
        <time>2013-09-24T13:06:33Z</time>
      </trkpt>
      
      <trkpt lat="44.660753" lon="6.941215">
        <ele>2598.4</ele>
        <time>2013-09-24T13:07:02Z</time>
      </trkpt>
      
      <trkpt lat="44.660913" lon="6.941237">
        <ele>2590.1</ele>
        <time>2013-09-24T13:07:41Z</time>
      </trkpt>
      
      <trkpt lat="44.660995" lon="6.941028">
        <ele>2585.2</ele>
        <time>2013-09-24T13:08:04Z</time>
      </trkpt>
      
      <trkpt lat="44.661123" lon="6.940887">
        <ele>2578.4</ele>
        <time>2013-09-24T13:08:27Z</time>
      </trkpt>
      
      <trkpt lat="44.661273" lon="6.940807">
        <ele>2571.2</ele>
        <time>2013-09-24T13:08:55Z</time>
      </trkpt>
      
      <trkpt lat="44.661438" lon="6.940728">
        <ele>2564.1</ele>
        <time>2013-09-24T13:09:25Z</time>
      </trkpt>
      
      <trkpt lat="44.661568" lon="6.940787">
        <ele>2557.3</ele>
        <time>2013-09-24T13:09:51Z</time>
      </trkpt>
      
      <trkpt lat="44.661647" lon="6.940705">
        <ele>2554.5</ele>
        <time>2013-09-24T13:10:05Z</time>
      </trkpt>
      
      <trkpt lat="44.661863" lon="6.940540">
        <ele>2548.7</ele>
        <time>2013-09-24T13:10:36Z</time>
      </trkpt>
      
      <trkpt lat="44.662008" lon="6.940422">
        <ele>2544.7</ele>
        <time>2013-09-24T13:10:54Z</time>
      </trkpt>
      
      <trkpt lat="44.662170" lon="6.940442">
        <ele>2538.7</ele>
        <time>2013-09-24T13:11:09Z</time>
      </trkpt>
      
      <trkpt lat="44.662257" lon="6.940655">
        <ele>2534.5</ele>
        <time>2013-09-24T13:11:26Z</time>
      </trkpt>
      
      <trkpt lat="44.662370" lon="6.940728">
        <ele>2530.5</ele>
        <time>2013-09-24T13:12:15Z</time>
      </trkpt>
      
      <trkpt lat="44.662455" lon="6.940923">
        <ele>2528.3</ele>
        <time>2013-09-24T13:12:31Z</time>
      </trkpt>
      
      <trkpt lat="44.662602" lon="6.940830">
        <ele>2523.8</ele>
        <time>2013-09-24T13:12:59Z</time>
      </trkpt>
      
      <trkpt lat="44.662700" lon="6.940642">
        <ele>2521.9</ele>
        <time>2013-09-24T13:13:13Z</time>
      </trkpt>
      
      <trkpt lat="44.662773" lon="6.940555">
        <ele>2520.4</ele>
        <time>2013-09-24T13:13:21Z</time>
      </trkpt>
      
      <trkpt lat="44.662983" lon="6.940388">
        <ele>2515.7</ele>
        <time>2013-09-24T13:13:44Z</time>
      </trkpt>
      
      <trkpt lat="44.663130" lon="6.940293">
        <ele>2512.2</ele>
        <time>2013-09-24T13:14:00Z</time>
      </trkpt>
      
      <trkpt lat="44.663288" lon="6.940342">
        <ele>2508.5</ele>
        <time>2013-09-24T13:14:17Z</time>
      </trkpt>
      
      <trkpt lat="44.663375" lon="6.940387">
        <ele>2507.0</ele>
        <time>2013-09-24T13:14:25Z</time>
      </trkpt>
      
      <trkpt lat="44.663615" lon="6.940362">
        <ele>2504.6</ele>
        <time>2013-09-24T13:14:47Z</time>
      </trkpt>
      
      <trkpt lat="44.663775" lon="6.940312">
        <ele>2503.0</ele>
        <time>2013-09-24T13:15:00Z</time>
      </trkpt>
      
      <trkpt lat="44.663937" lon="6.940268">
        <ele>2501.2</ele>
        <time>2013-09-24T13:15:13Z</time>
      </trkpt>
      
      <trkpt lat="44.664107" lon="6.940217">
        <ele>2499.3</ele>
        <time>2013-09-24T13:15:27Z</time>
      </trkpt>
      
      <trkpt lat="44.664272" lon="6.940185">
        <ele>2498.0</ele>
        <time>2013-09-24T13:15:40Z</time>
      </trkpt>
      
      <trkpt lat="44.664445" lon="6.940163">
        <ele>2496.9</ele>
        <time>2013-09-24T13:16:18Z</time>
      </trkpt>
      
      <trkpt lat="44.664542" lon="6.939992">
        <ele>2495.2</ele>
        <time>2013-09-24T13:16:30Z</time>
      </trkpt>
      
      <trkpt lat="44.664640" lon="6.939797">
        <ele>2492.4</ele>
        <time>2013-09-24T13:16:42Z</time>
      </trkpt>
      
      <trkpt lat="44.664678" lon="6.939602">
        <ele>2490.0</ele>
        <time>2013-09-24T13:16:57Z</time>
      </trkpt>
      
      <trkpt lat="44.664742" lon="6.939377">
        <ele>2487.0</ele>
        <time>2013-09-24T13:17:09Z</time>
      </trkpt>
      
      <trkpt lat="44.664830" lon="6.939190">
        <ele>2484.0</ele>
        <time>2013-09-24T13:17:22Z</time>
      </trkpt>
      
      <trkpt lat="44.664885" lon="6.938970">
        <ele>2482.6</ele>
        <time>2013-09-24T13:17:33Z</time>
      </trkpt>
      
      <trkpt lat="44.664945" lon="6.938775">
        <ele>2481.2</ele>
        <time>2013-09-24T13:17:43Z</time>
      </trkpt>
      
      <trkpt lat="44.664995" lon="6.938553">
        <ele>2479.8</ele>
        <time>2013-09-24T13:17:54Z</time>
      </trkpt>
      
      <trkpt lat="44.665087" lon="6.938355">
        <ele>2479.0</ele>
        <time>2013-09-24T13:18:06Z</time>
      </trkpt>
      
      <trkpt lat="44.665140" lon="6.938132">
        <ele>2479.1</ele>
        <time>2013-09-24T13:18:18Z</time>
      </trkpt>
      
      <trkpt lat="44.665185" lon="6.937908">
        <ele>2479.1</ele>
        <time>2013-09-24T13:18:29Z</time>
      </trkpt>
      
      <trkpt lat="44.665190" lon="6.937780">
        <ele>2479.1</ele>
        <time>2013-09-24T13:18:35Z</time>
      </trkpt>
      
      <trkpt lat="44.665268" lon="6.937485">
        <ele>2478.6</ele>
        <time>2013-09-24T13:18:53Z</time>
      </trkpt>
      
      <trkpt lat="44.665353" lon="6.937282">
        <ele>2476.4</ele>
        <time>2013-09-24T13:19:26Z</time>
      </trkpt>
      
      <trkpt lat="44.665365" lon="6.937050">
        <ele>2474.4</ele>
        <time>2013-09-24T13:19:37Z</time>
      </trkpt>
      
      <trkpt lat="44.665403" lon="6.936833">
        <ele>2472.4</ele>
        <time>2013-09-24T13:19:48Z</time>
      </trkpt>
      
      <trkpt lat="44.665413" lon="6.936610">
        <ele>2470.2</ele>
        <time>2013-09-24T13:19:59Z</time>
      </trkpt>
      
      <trkpt lat="44.665500" lon="6.936412">
        <ele>2467.3</ele>
        <time>2013-09-24T13:20:10Z</time>
      </trkpt>
      
      <trkpt lat="44.665542" lon="6.936205">
        <ele>2464.6</ele>
        <time>2013-09-24T13:20:20Z</time>
      </trkpt>
      
      <trkpt lat="44.665602" lon="6.936005">
        <ele>2461.9</ele>
        <time>2013-09-24T13:20:30Z</time>
      </trkpt>
      
      <trkpt lat="44.665677" lon="6.935795">
        <ele>2459.1</ele>
        <time>2013-09-24T13:20:41Z</time>
      </trkpt>
      
      <trkpt lat="44.665725" lon="6.935592">
        <ele>2456.1</ele>
        <time>2013-09-24T13:20:51Z</time>
      </trkpt>
      
      <trkpt lat="44.665745" lon="6.935370">
        <ele>2453.0</ele>
        <time>2013-09-24T13:21:04Z</time>
      </trkpt>
      
      <trkpt lat="44.665775" lon="6.935157">
        <ele>2449.9</ele>
        <time>2013-09-24T13:21:15Z</time>
      </trkpt>
      
      <trkpt lat="44.665780" lon="6.934942">
        <ele>2447.3</ele>
        <time>2013-09-24T13:21:25Z</time>
      </trkpt>
      
      <trkpt lat="44.665833" lon="6.934710">
        <ele>2445.6</ele>
        <time>2013-09-24T13:21:37Z</time>
      </trkpt>
      
      <trkpt lat="44.665870" lon="6.934577">
        <ele>2444.4</ele>
        <time>2013-09-24T13:21:44Z</time>
      </trkpt>
      
      <trkpt lat="44.665928" lon="6.934268">
        <ele>2441.8</ele>
        <time>2013-09-24T13:21:59Z</time>
      </trkpt>
      
      <trkpt lat="44.665983" lon="6.934067">
        <ele>2440.3</ele>
        <time>2013-09-24T13:22:09Z</time>
      </trkpt>
      
      <trkpt lat="44.666052" lon="6.933840">
        <ele>2439.0</ele>
        <time>2013-09-24T13:22:21Z</time>
      </trkpt>
      
      <trkpt lat="44.666107" lon="6.933630">
        <ele>2437.9</ele>
        <time>2013-09-24T13:22:31Z</time>
      </trkpt>
      
      <trkpt lat="44.666170" lon="6.933425">
        <ele>2436.5</ele>
        <time>2013-09-24T13:22:41Z</time>
      </trkpt>
      
      <trkpt lat="44.666203" lon="6.933302">
        <ele>2435.9</ele>
        <time>2013-09-24T13:22:47Z</time>
      </trkpt>
      
      <trkpt lat="44.666290" lon="6.933017">
        <ele>2434.8</ele>
        <time>2013-09-24T13:23:01Z</time>
      </trkpt>
      
      <trkpt lat="44.666358" lon="6.932812">
        <ele>2433.9</ele>
        <time>2013-09-24T13:23:11Z</time>
      </trkpt>
      
      <trkpt lat="44.666425" lon="6.932608">
        <ele>2433.1</ele>
        <time>2013-09-24T13:23:21Z</time>
      </trkpt>
      
      <trkpt lat="44.666487" lon="6.932407">
        <ele>2432.7</ele>
        <time>2013-09-24T13:23:31Z</time>
      </trkpt>
      
      <trkpt lat="44.666562" lon="6.932198">
        <ele>2432.5</ele>
        <time>2013-09-24T13:23:41Z</time>
      </trkpt>
      
      <trkpt lat="44.666618" lon="6.931985">
        <ele>2432.8</ele>
        <time>2013-09-24T13:23:51Z</time>
      </trkpt>
      
      <trkpt lat="44.666648" lon="6.931747">
        <ele>2433.7</ele>
        <time>2013-09-24T13:24:01Z</time>
      </trkpt>
      
      <trkpt lat="44.666703" lon="6.931543">
        <ele>2434.4</ele>
        <time>2013-09-24T13:24:11Z</time>
      </trkpt>
      
      <trkpt lat="44.666792" lon="6.931368">
        <ele>2434.5</ele>
        <time>2013-09-24T13:24:21Z</time>
      </trkpt>
      
      <trkpt lat="44.666900" lon="6.931207">
        <ele>2434.4</ele>
        <time>2013-09-24T13:24:31Z</time>
      </trkpt>
      
      <trkpt lat="44.667013" lon="6.931045">
        <ele>2434.1</ele>
        <time>2013-09-24T13:24:41Z</time>
      </trkpt>
      
      <trkpt lat="44.667153" lon="6.930917">
        <ele>2433.3</ele>
        <time>2013-09-24T13:24:52Z</time>
      </trkpt>
      
      <trkpt lat="44.667217" lon="6.930822">
        <ele>2433.2</ele>
        <time>2013-09-24T13:24:58Z</time>
      </trkpt>
      
      <trkpt lat="44.667362" lon="6.930592">
        <ele>2433.1</ele>
        <time>2013-09-24T13:25:12Z</time>
      </trkpt>
      
      <trkpt lat="44.667470" lon="6.930437">
        <ele>2432.8</ele>
        <time>2013-09-24T13:25:22Z</time>
      </trkpt>
      
      <trkpt lat="44.667573" lon="6.930278">
        <ele>2432.0</ele>
        <time>2013-09-24T13:25:32Z</time>
      </trkpt>
      
      <trkpt lat="44.667683" lon="6.930120">
        <ele>2431.2</ele>
        <time>2013-09-24T13:25:42Z</time>
      </trkpt>
      
      <trkpt lat="44.667787" lon="6.929955">
        <ele>2431.0</ele>
        <time>2013-09-24T13:25:53Z</time>
      </trkpt>
      
      <trkpt lat="44.667845" lon="6.929833">
        <ele>2431.1</ele>
        <time>2013-09-24T13:26:00Z</time>
      </trkpt>
      
      <trkpt lat="44.668005" lon="6.929565">
        <ele>2431.3</ele>
        <time>2013-09-24T13:26:17Z</time>
      </trkpt>
      
      <trkpt lat="44.668103" lon="6.929398">
        <ele>2431.6</ele>
        <time>2013-09-24T13:26:27Z</time>
      </trkpt>
      
      <trkpt lat="44.668205" lon="6.929213">
        <ele>2432.1</ele>
        <time>2013-09-24T13:26:38Z</time>
      </trkpt>
      
      <trkpt lat="44.668305" lon="6.929040">
        <ele>2431.3</ele>
        <time>2013-09-24T13:26:48Z</time>
      </trkpt>
      
      <trkpt lat="44.668370" lon="6.928843">
        <ele>2430.4</ele>
        <time>2013-09-24T13:26:58Z</time>
      </trkpt>
      
      <trkpt lat="44.668410" lon="6.928717">
        <ele>2429.8</ele>
        <time>2013-09-24T13:27:04Z</time>
      </trkpt>
      
      <trkpt lat="44.668518" lon="6.928438">
        <ele>2428.3</ele>
        <time>2013-09-24T13:27:18Z</time>
      </trkpt>
      
      <trkpt lat="44.668607" lon="6.928243">
        <ele>2427.2</ele>
        <time>2013-09-24T13:27:29Z</time>
      </trkpt>
      
      <trkpt lat="44.668698" lon="6.928062">
        <ele>2426.4</ele>
        <time>2013-09-24T13:27:39Z</time>
      </trkpt>
      
      <trkpt lat="44.668783" lon="6.927867">
        <ele>2425.7</ele>
        <time>2013-09-24T13:27:49Z</time>
      </trkpt>
      
      <trkpt lat="44.668880" lon="6.927667">
        <ele>2425.0</ele>
        <time>2013-09-24T13:27:59Z</time>
      </trkpt>
      
      <trkpt lat="44.668950" lon="6.927478">
        <ele>2424.5</ele>
        <time>2013-09-24T13:28:09Z</time>
      </trkpt>
      
      <trkpt lat="44.669042" lon="6.927295">
        <ele>2423.1</ele>
        <time>2013-09-24T13:28:19Z</time>
      </trkpt>
      
      <trkpt lat="44.669137" lon="6.927102">
        <ele>2421.4</ele>
        <time>2013-09-24T13:28:30Z</time>
      </trkpt>
      
      <trkpt lat="44.669223" lon="6.926920">
        <ele>2419.9</ele>
        <time>2013-09-24T13:28:40Z</time>
      </trkpt>
      
      <trkpt lat="44.669293" lon="6.926713">
        <ele>2418.3</ele>
        <time>2013-09-24T13:28:50Z</time>
      </trkpt>
      
      <trkpt lat="44.669318" lon="6.926485">
        <ele>2416.0</ele>
        <time>2013-09-24T13:29:02Z</time>
      </trkpt>
      
      <trkpt lat="44.669398" lon="6.926403">
        <ele>2414.0</ele>
        <time>2013-09-24T13:29:11Z</time>
      </trkpt>
      
      <trkpt lat="44.669630" lon="6.926315">
        <ele>2409.7</ele>
        <time>2013-09-24T13:29:29Z</time>
      </trkpt>
      
      <trkpt lat="44.669780" lon="6.926202">
        <ele>2406.2</ele>
        <time>2013-09-24T13:29:43Z</time>
      </trkpt>
      
      <trkpt lat="44.669900" lon="6.926058">
        <ele>2402.9</ele>
        <time>2013-09-24T13:29:53Z</time>
      </trkpt>
      
      <trkpt lat="44.670022" lon="6.925900">
        <ele>2399.4</ele>
        <time>2013-09-24T13:30:04Z</time>
      </trkpt>
      
      <trkpt lat="44.670150" lon="6.925740">
        <ele>2397.0</ele>
        <time>2013-09-24T13:30:16Z</time>
      </trkpt>
      
      <trkpt lat="44.670297" lon="6.925622">
        <ele>2394.9</ele>
        <time>2013-09-24T13:30:28Z</time>
      </trkpt>
      
      <trkpt lat="44.670452" lon="6.925510">
        <ele>2392.6</ele>
        <time>2013-09-24T13:30:40Z</time>
      </trkpt>
      
      <trkpt lat="44.670598" lon="6.925402">
        <ele>2390.4</ele>
        <time>2013-09-24T13:30:52Z</time>
      </trkpt>
      
      <trkpt lat="44.670705" lon="6.925227">
        <ele>2388.4</ele>
        <time>2013-09-24T13:31:03Z</time>
      </trkpt>
      
      <trkpt lat="44.670855" lon="6.925127">
        <ele>2386.1</ele>
        <time>2013-09-24T13:31:14Z</time>
      </trkpt>
      
      <trkpt lat="44.670928" lon="6.925053">
        <ele>2385.6</ele>
        <time>2013-09-24T13:31:20Z</time>
      </trkpt>
      
      <trkpt lat="44.671122" lon="6.924870">
        <ele>2385.1</ele>
        <time>2013-09-24T13:31:35Z</time>
      </trkpt>
      
      <trkpt lat="44.671278" lon="6.924793">
        <ele>2384.3</ele>
        <time>2013-09-24T13:31:45Z</time>
      </trkpt>
      
      <trkpt lat="44.671375" lon="6.924628">
        <ele>2384.0</ele>
        <time>2013-09-24T13:31:55Z</time>
      </trkpt>
      
      <trkpt lat="44.671460" lon="6.924425">
        <ele>2383.6</ele>
        <time>2013-09-24T13:32:05Z</time>
      </trkpt>
      
      <trkpt lat="44.671535" lon="6.924222">
        <ele>2383.0</ele>
        <time>2013-09-24T13:32:15Z</time>
      </trkpt>
      
      <trkpt lat="44.671580" lon="6.924107">
        <ele>2382.4</ele>
        <time>2013-09-24T13:32:21Z</time>
      </trkpt>
      
      <trkpt lat="44.671688" lon="6.923843">
        <ele>2381.3</ele>
        <time>2013-09-24T13:32:35Z</time>
      </trkpt>
      
      <trkpt lat="44.671807" lon="6.923700">
        <ele>2381.2</ele>
        <time>2013-09-24T13:32:45Z</time>
      </trkpt>
      
      <trkpt lat="44.671940" lon="6.923582">
        <ele>2381.1</ele>
        <time>2013-09-24T13:32:55Z</time>
      </trkpt>
      
      <trkpt lat="44.672062" lon="6.923425">
        <ele>2381.3</ele>
        <time>2013-09-24T13:33:06Z</time>
      </trkpt>
      
      <trkpt lat="44.672180" lon="6.923265">
        <ele>2381.3</ele>
        <time>2013-09-24T13:33:18Z</time>
      </trkpt>
      
      <trkpt lat="44.672250" lon="6.923165">
        <ele>2381.1</ele>
        <time>2013-09-24T13:33:26Z</time>
      </trkpt>
      
      <trkpt lat="44.672193" lon="6.922892">
        <ele>2380.7</ele>
        <time>2013-09-24T13:33:56Z</time>
      </trkpt>
      
      <trkpt lat="44.672282" lon="6.922713">
        <ele>2380.8</ele>
        <time>2013-09-24T13:34:15Z</time>
      </trkpt>
      
      <trkpt lat="44.672397" lon="6.922552">
        <ele>2381.4</ele>
        <time>2013-09-24T13:34:26Z</time>
      </trkpt>
      
      <trkpt lat="44.672462" lon="6.922460">
        <ele>2380.7</ele>
        <time>2013-09-24T13:34:32Z</time>
      </trkpt>
      
      <trkpt lat="44.672642" lon="6.922287">
        <ele>2372.8</ele>
        <time>2013-09-24T13:34:46Z</time>
      </trkpt>
      
      <trkpt lat="44.672768" lon="6.922137">
        <ele>2366.6</ele>
        <time>2013-09-24T13:34:57Z</time>
      </trkpt>
      
      <trkpt lat="44.672883" lon="6.921998">
        <ele>2361.0</ele>
        <time>2013-09-24T13:35:07Z</time>
      </trkpt>
      
      <trkpt lat="44.673017" lon="6.921833">
        <ele>2354.9</ele>
        <time>2013-09-24T13:35:19Z</time>
      </trkpt>
      
      <trkpt lat="44.673138" lon="6.921678">
        <ele>2350.1</ele>
        <time>2013-09-24T13:35:30Z</time>
      </trkpt>
      
      <trkpt lat="44.673215" lon="6.921605">
        <ele>2347.2</ele>
        <time>2013-09-24T13:35:36Z</time>
      </trkpt>
      
      <trkpt lat="44.673412" lon="6.921507">
        <ele>2342.3</ele>
        <time>2013-09-24T13:35:50Z</time>
      </trkpt>
      
      <trkpt lat="44.673573" lon="6.921463">
        <ele>2339.2</ele>
        <time>2013-09-24T13:36:01Z</time>
      </trkpt>
      
      <trkpt lat="44.673750" lon="6.921417">
        <ele>2335.7</ele>
        <time>2013-09-24T13:36:13Z</time>
      </trkpt>
      
      <trkpt lat="44.673912" lon="6.921402">
        <ele>2333.2</ele>
        <time>2013-09-24T13:36:24Z</time>
      </trkpt>
      
      <trkpt lat="44.674085" lon="6.921403">
        <ele>2330.9</ele>
        <time>2013-09-24T13:36:36Z</time>
      </trkpt>
      
      <trkpt lat="44.674245" lon="6.921472">
        <ele>2332.2</ele>
        <time>2013-09-24T13:36:47Z</time>
      </trkpt>
      
      <trkpt lat="44.674403" lon="6.921573">
        <ele>2335.9</ele>
        <time>2013-09-24T13:37:03Z</time>
      </trkpt>
      
      <trkpt lat="44.674553" lon="6.921677">
        <ele>2339.6</ele>
        <time>2013-09-24T13:37:24Z</time>
      </trkpt>
      
      <trkpt lat="44.674687" lon="6.921778">
        <ele>2342.2</ele>
        <time>2013-09-24T13:37:34Z</time>
      </trkpt>
      
      <trkpt lat="44.674757" lon="6.921878">
        <ele>2343.9</ele>
        <time>2013-09-24T13:37:40Z</time>
      </trkpt>
      
      <trkpt lat="44.674835" lon="6.922193">
        <ele>2347.3</ele>
        <time>2013-09-24T13:38:21Z</time>
      </trkpt>
      
      <trkpt lat="44.674988" lon="6.922272">
        <ele>2349.2</ele>
        <time>2013-09-24T13:38:36Z</time>
      </trkpt>
      
      <trkpt lat="44.675078" lon="6.922285">
        <ele>2351.1</ele>
        <time>2013-09-24T13:38:43Z</time>
      </trkpt>
      
      <trkpt lat="44.675310" lon="6.922197">
        <ele>2355.1</ele>
        <time>2013-09-24T13:39:00Z</time>
      </trkpt>
      
      <trkpt lat="44.675390" lon="6.921997">
        <ele>2354.8</ele>
        <time>2013-09-24T13:39:22Z</time>
      </trkpt>
      
      <trkpt lat="44.675407" lon="6.921762">
        <ele>2352.8</ele>
        <time>2013-09-24T13:39:34Z</time>
      </trkpt>
      
      <trkpt lat="44.675408" lon="6.921632">
        <ele>2351.1</ele>
        <time>2013-09-24T13:39:44Z</time>
      </trkpt>
      <trkpt lat="44.675403" lon="6.921653">
        <ele>2351.5</ele>
        <time>2013-09-24T13:41:02Z</time>
      </trkpt>
      <trkpt lat="44.675403" lon="6.921653">
        <ele>2351.5</ele>
        <time>2013-09-24T13:41:02Z</time>
      </trkpt>
      <trkpt lat="44.675403" lon="6.921653">
        <ele>2351.5</ele>
        <time>2013-09-24T13:41:07Z</time>
      </trkpt>
    </trkseg>
  </trk>
</gpx>